»·PEaware :: N624LL KSBA-KOXR

N624LL :: KSBA-KOXR

FLIGHT INFORMATION

Flight Status: Arrived
Operator: Privately registered:
United States
More flights under this callsign
Pilot: Larry L. (13645)
Aircraft: Unknown
(TB20)
More flights by this aircraft type
Origin: KSBA Santa Barbara Mun
United States
Destination: KOXR Oxnard
United States
More flights between these airports :: More routes between these airports
Route:
File this flight plan on PilotEdge
Remarks:
Altitude:
(Current/Filed)
3,000ft
Speed:
(Current/Filed)
145kts
Departed: 01-Jan-18 01:55 PM
Arrived: 01-Jan-18 02:31 PM
Distance/Time
Traveled:
34nm/0:36
Distance/Time
To Go:
Arrived

Flight Plot

Page will automatically refresh every two minutes.


Map Options




Map Legend


Flown Route
Filed Route
Departure Airport
Arrival Airport
Navaid (VOR, NDB)
Fix

Horizontal Profiles

Position Reports

Time Latitude Longitude Heading Altitude Ground
Speed
01-Jan-18 13:47 34.430397 -119.841506 346 16ft 0kts
01-Jan-18 13:48 34.430397 -119.841506 346 16ft 0kts
01-Jan-18 13:49 34.430397 -119.841506 346 16ft 0kts
01-Jan-18 13:50 34.430397 -119.841506 346 16ft 0kts
01-Jan-18 13:51 34.430397 -119.841506 346 16ft 0kts
01-Jan-18 13:52 34.430397 -119.841506 346 16ft 0kts
01-Jan-18 13:53 34.430397 -119.841506 346 16ft 0kts
01-Jan-18 13:54 34.430397 -119.841506 346 16ft 0kts
01-Jan-18 13:55 34.430397 -119.841506 346 16ft 0kts
01-Jan-18 13:56 34.430397 -119.841506 346 16ft 0kts
01-Jan-18 13:57 34.430397 -119.841506 346 16ft 0kts
01-Jan-18 13:58 34.430471 -119.841373 83 16ft 0kts
01-Jan-18 13:59 34.430385 -119.841262 158 16ft 0kts
01-Jan-18 14:00 34.430385 -119.841262 158 16ft 0kts
01-Jan-18 14:01 34.423670 -119.839476 166 126ft 99kts
01-Jan-18 14:02 34.399121 -119.826939 104 1994ft 106kts
01-Jan-18 14:03 34.406987 -119.792355 66 3631ft 114kts
01-Jan-18 14:04 34.415545 -119.755678 80 4535ft 131kts
01-Jan-18 14:05 34.420840 -119.710805 95 4526ft 134kts
01-Jan-18 14:06 34.417555 -119.666895 95 4624ft 133kts
01-Jan-18 14:07 34.414228 -119.621866 95 4623ft 134kts
01-Jan-18 14:08 34.410881 -119.576980 95 4623ft 134kts
01-Jan-18 14:09 34.407493 -119.531807 95 4623ft 134kts
01-Jan-18 14:10 34.404101 -119.486794 95 4623ft 134kts
01-Jan-18 14:11 34.400693 -119.441798 95 4623ft 134kts
01-Jan-18 14:12 34.397264 -119.396747 95 4623ft 134kts
01-Jan-18 14:13 34.393819 -119.351694 95 4623ft 134kts
01-Jan-18 14:14 34.390356 -119.306643 95 4623ft 134kts
01-Jan-18 14:15 34.385950 -119.261325 101 4512ft 140kts
01-Jan-18 14:16 34.379442 -119.216045 86 4376ft 140kts
01-Jan-18 14:17 34.379120 -119.171082 96 4512ft 128kts
01-Jan-18 14:18 34.376349 -119.125983 96 4437ft 137kts
01-Jan-18 14:19 34.372750 -119.080380 97 4438ft 140kts
01-Jan-18 14:20 34.368571 -119.035131 96 4445ft 142kts
01-Jan-18 14:21 34.365467 -118.990264 94 4625ft 134kts
01-Jan-18 14:22 34.361749 -118.944413 103 4641ft 134kts
01-Jan-18 14:23 34.357824 -118.897288 103 4477ft 138kts
01-Jan-18 14:24 34.326370 -118.881185 176 4531ft 135kts
01-Jan-18 14:25 34.288119 -118.878913 179 4184ft 144kts
01-Jan-18 14:26 34.249547 -118.877565 174 4134ft 141kts
01-Jan-18 14:27 34.212118 -118.876658 180 4182ft 129kts
01-Jan-18 14:28 34.196941 -118.909831 272 3820ft 124kts
01-Jan-18 14:29 34.199122 -118.951060 270 3648ft 127kts
01-Jan-18 14:30 34.198965 -118.994729 258 3254ft 124kts
01-Jan-18 14:31 34.199167 -119.035868 281 2696ft 126kts
01-Jan-18 14:32 34.198186 -119.075395 272 1860ft 112kts
01-Jan-18 14:33 34.200322 -119.108607 269 1402ft 93kts
01-Jan-18 14:34 34.200147 -119.137969 269 1064ft 90kts
01-Jan-18 14:35 34.200382 -119.170100 271 637ft 99kts
01-Jan-18 14:36 34.200765 -119.200024 269 73ft 76kts
01-Jan-18 14:37 34.199974 -119.207174 159 45ft 9kts
01-Jan-18 14:38 34.198736 -119.206515 151 45ft 0kts
01-Jan-18 14:39 34.198736 -119.206515 151 45ft 0kts

Navigation Log

Ident Type
1. KSBA Airport
2. KOXR Airport